Terminal Aerodrome Forecast
Issued by NWS

Home | Current Version | Previous Version | Graphics & Text | Print | Product List | Glossary On
Versions: 1 2 3 4 5 6 7 8 9 10 11 12 13 14 15 16 17 18 19 20 21 22 23 24 25 26
993
FTUS43 KLOT 050953 AAB
TAFMDW
TAF AMD
KMDW 050953Z 0510/0606 22006KT P6SM VCSH SCT025 BKN045
      TEMPO 0510/0511 5SM -SN
     FM051100 28007KT P6SM OVC015
     FM051400 32008KT P6SM OVC012
     FM052100 28006KT P6SM SCT020
     FM060000 24004KT P6SM OVC090=

USA.gov is the U.S. government's official web portal to all federal, state and local government web resources and services.